Time;durP1;ratioP1;P1;durP2;ratioP2;P2;SDS_P1;SDS_P2;PMS_P1;PMS_P2;Temp;Humidity;BMP_temperature;BMP_pressure;BME280_temperature;BME280_humidity;BME280_pressure;Samples;Min_cycle;Max_cycle;Signal;HPM_P1;HPM_P2
2023/09/21 00:00:27;;;;;;;0.40;0.40;;;;;;;17.20;70.13;95990.94;29395;228;63004;-59
2023/09/21 00:01:03;;;;;;;0.50;0.50;;;;;;;17.21;69.70;95984.28;29395;203;63016;-53
2023/09/21 00:01:35;;;;;;;0.50;0.50;;;;;;;17.21;69.92;95987.03;29394;235;64008;-53
2023/09/21 00:02:12;;;;;;;0.43;0.43;;;;;;;17.20;69.84;95990.94;29394;216;64014;-59
2023/09/21 00:02:56;;;;;;;0.50;0.50;;;;;;;17.19;70.04;95988.53;29395;229;63005;-53
2023/09/21 00:03:31;;;;;;;0.50;0.50;;;;;;;17.20;69.66;95990.94;29395;245;63009;-60
2023/09/21 00:04:02;;;;;;;0.40;0.40;;;;;;;17.22;69.97;95994.09;29395;213;63005;-53
2023/09/21 00:04:35;;;;;;;0.40;0.40;;;;;;;17.19;69.76;95986.59;29395;205;63009;-53
2023/09/21 00:05:09;;;;;;;0.40;0.40;;;;;;;17.21;70.07;95987.03;29395;250;63009;-53
2023/09/21 00:05:46;;;;;;;0.40;0.40;;;;;;;17.21;69.73;95986.25;29395;229;63009;-53
2023/09/21 00:06:20;;;;;;;0.40;0.40;;;;;;;17.19;70.06;95983.84;29394;213;64009;-53
2023/09/21 00:06:52;;;;;;;0.50;0.50;;;;;;;17.24;69.75;95988.28;29395;249;63009;-60
2023/09/21 00:07:24;;;;;;;0.40;0.40;;;;;;;17.25;69.76;95987.91;29394;227;64004;-61
2023/09/21 00:07:57;;;;;;;0.47;0.47;;;;;;;17.26;69.44;95984.03;29395;240;63024;-54
2023/09/21 00:08:30;;;;;;;0.40;0.40;;;;;;;17.24;69.76;95989.06;29395;218;63004;-53
2023/09/21 00:09:02;;;;;;;0.43;0.43;;;;;;;17.24;69.53;95980.84;29395;227;63008;-54
2023/09/21 00:09:36;;;;;;;0.40;0.40;;;;;;;17.28;69.49;95986.41;29394;196;64008;-53
2023/09/21 00:10:10;;;;;;;0.43;0.43;;;;;;;17.29;69.85;95988.00;29395;208;63009;-54
2023/09/21 00:10:41;;;;;;;0.40;0.40;;;;;;;17.27;69.71;95990.28;29395;197;63005;-54
2023/09/21 00:11:13;;;;;;;0.40;0.40;;;;;;;17.25;69.60;95990.66;29395;293;63009;-53
2023/09/21 00:11:46;;;;;;;0.40;0.40;;;;;;;17.28;69.84;95986.41;29394;216;64009;-52
2023/09/21 00:12:17;;;;;;;0.40;0.40;;;;;;;17.25;69.60;95987.91;29395;230;63009;-53
2023/09/21 00:12:49;;;;;;;0.40;0.40;;;;;;;17.25;69.55;95978.91;29395;225;63005;-54
2023/09/21 00:13:32;;;;;;;0.40;0.40;;;;;;;17.22;70.06;95983.13;29395;281;63009;-53
2023/09/21 00:14:04;;;;;;;0.40;0.40;;;;;;;17.22;69.77;95988.62;29395;304;63004;-54
2023/09/21 00:14:35;;;;;;;0.40;0.40;;;;;;;17.24;69.78;95985.53;29395;226;63009;-52
2023/09/21 00:15:21;;;;;;;0.40;0.40;;;;;;;17.22;69.55;95977.66;29395;216;63000;-52
2023/09/21 00:15:52;;;;;;;0.40;0.40;;;;;;;17.24;69.85;95980.03;29395;216;63009;-52
2023/09/21 00:16:25;;;;;;;0.40;0.40;;;;;;;17.25;69.53;95979.69;29394;235;64008;-60
2023/09/21 00:16:56;;;;;;;0.32;0.32;;;;;;;17.25;69.90;95982.44;29395;196;63008;-55
2023/09/21 00:17:27;;;;;;;0.40;0.40;;;;;;;17.23;69.93;95979.25;29394;237;64009;-54
2023/09/21 00:17:59;;;;;;;0.40;0.40;;;;;;;17.18;69.76;95982.25;29395;251;63009;-53
2023/09/21 00:18:30;;;;;;;0.40;0.40;;;;;;;17.16;70.00;95979.09;29395;262;63005;-61
2023/09/21 00:19:07;;;;;;;0.40;0.40;;;;;;;17.16;70.24;95981.81;29394;234;64013;-53
2023/09/21 00:19:41;;;;;;;0.40;0.40;;;;;;;17.14;70.36;95975.09;29395;227;63005;-60
2023/09/21 00:20:23;;;;;;;0.40;0.40;;;;;;;17.08;70.24;95978.13;29394;198;64009;-54
2023/09/21 00:20:56;;;;;;;0.40;0.40;;;;;;;17.06;70.27;95982.38;29395;202;63005;-53
2023/09/21 00:21:31;;;;;;;0.40;0.40;;;;;;;17.06;70.59;95976.87;29395;259;63020;-52
2023/09/21 00:22:04;;;;;;;0.45;0.45;;;;;;;17.05;70.55;95972.56;29394;198;64009;-52
2023/09/21 00:22:35;;;;;;;0.50;0.50;;;;;;;17.06;70.56;95974.16;29395;253;63009;-53
2023/09/21 00:23:08;;;;;;;0.50;0.50;;;;;;;17.06;70.66;95980.41;29394;218;64009;-53
2023/09/21 00:23:39;;;;;;;0.40;0.40;;;;;;;17.07;70.21;95975.72;29395;232;63009;-54
2023/09/21 00:24:12;;;;;;;0.62;0.62;;;;;;;17.08;70.47;95977.31;29395;236;63004;-53
2023/09/21 00:24:45;;;;;;;0.50;0.50;;;;;;;17.07;70.21;95976.53;29395;215;63008;-53
2023/09/21 00:25:16;;;;;;;0.50;0.50;;;;;;;17.07;70.35;95964.78;29395;241;63005;-53
2023/09/21 00:25:48;;;;;;;0.40;0.40;;;;;;;17.05;70.32;95972.56;29395;207;63009;-53
2023/09/21 00:26:22;;;;;;;0.40;0.40;;;;;;;17.03;70.58;95970.16;29395;269;63005;-53
2023/09/21 00:26:53;;;;;;;0.40;0.40;;;;;;;17.04;70.56;95969.03;29395;199;63009;-53
2023/09/21 00:27:28;;;;;;;0.40;0.40;;;;;;;17.03;70.64;95972.12;29395;224;63005;-53
2023/09/21 00:28:12;;;;;;;0.40;0.40;;;;;;;17.02;70.83;95968.56;29394;222;64027;-53
2023/09/21 00:28:43;;;;;;;0.40;0.40;;;;;;;17.02;70.56;95970.53;29395;208;63005;-53
2023/09/21 00:29:15;;;;;;;0.40;0.40;;;;;;;17.01;70.56;95968.94;29395;245;63009;-53
2023/09/21 00:29:49;;;;;;;1.12;1.12;;;;;;;16.98;70.98;95961.44;29395;240;63004;-52
2023/09/21 00:30:20;;;;;;;0.40;0.40;;;;;;;16.97;70.67;95965.34;29395;205;63009;-53
2023/09/21 00:30:57;;;;;;;0.50;0.50;;;;;;;16.96;70.69;95969.22;29395;244;63004;-53
2023/09/21 00:31:29;;;;;;;0.40;0.40;;;;;;;16.97;70.51;95966.12;29395;198;63008;-53
2023/09/21 00:32:00;;;;;;;0.40;0.40;;;;;;;16.98;70.66;95961.44;29395;196;63004;-54
2023/09/21 00:32:39;;;;;;;0.40;0.40;;;;;;;16.99;70.20;95960.28;29395;211;63009;-53
2023/09/21 00:33:11;;;;;;;0.40;0.40;;;;;;;17.00;70.42;95954.44;29394;222;64009;-53
2023/09/21 00:33:43;;;;;;;0.50;0.50;;;;;;;17.02;70.09;95956.81;29395;220;63009;-53
2023/09/21 00:34:14;;;;;;;0.40;0.40;;;;;;;17.04;70.21;95962.75;29395;228;63005;-53
2023/09/21 00:34:49;;;;;;;0.40;0.40;;;;;;;17.04;70.08;95960.00;29395;227;63009;-53
2023/09/21 00:35:23;;;;;;;0.40;0.40;;;;;;;17.04;70.13;95960.00;29395;205;63005;-53
2023/09/21 00:35:58;;;;;;;0.40;0.40;;;;;;;17.04;70.02;95955.31;29395;263;63009;-52
2023/09/21 00:36:30;;;;;;;0.40;0.40;;;;;;;17.04;70.09;95955.31;29395;215;63005;-53
2023/09/21 00:37:01;;;;;;;0.40;0.40;;;;;;;17.02;69.81;95956.81;29395;231;63009;-53
2023/09/21 00:37:34;;;;;;;0.40;0.40;;;;;;;17.02;69.99;95951.34;29395;288;63004;-53
2023/09/21 00:38:10;;;;;;;0.40;0.40;;;;;;;17.01;69.91;95955.22;29395;294;63009;-53
2023/09/21 00:38:41;;;;;;;0.40;0.40;;;;;;;17.00;70.19;95948.16;29394;275;64009;-53
2023/09/21 00:39:13;;;;;;;0.40;0.40;;;;;;;16.99;70.37;95952.06;29395;280;63008;-53
2023/09/21 00:39:47;;;;;;;0.40;0.40;;;;;;;16.99;70.33;95952.06;29395;228;63004;-53
2023/09/21 00:40:25;;;;;;;0.40;0.40;;;;;;;16.97;70.08;95952.44;29395;282;63009;-53
2023/09/21 00:40:58;;;;;;;0.40;0.40;;;;;;;16.98;70.45;95955.97;29395;231;63005;-54
2023/09/21 00:41:32;;;;;;;0.40;0.40;;;;;;;16.96;70.56;95942.62;29394;259;64014;-53
2023/09/21 00:42:03;;;;;;;0.40;0.40;;;;;;;16.98;70.42;95950.50;29395;229;63005;-53
2023/09/21 00:42:35;;;;;;;0.40;0.40;;;;;;;17.00;70.36;95948.16;29394;316;64013;-52
2023/09/21 00:43:20;;;;;;;0.40;0.40;;;;;;;16.99;70.18;95949.31;29395;203;63012;-53
2023/09/21 00:43:51;;;;;;;0.40;0.40;;;;;;;17.01;70.03;95947.00;29395;230;63009;-53
2023/09/21 00:44:22;;;;;;;0.40;0.40;;;;;;;17.01;69.86;95949.75;29394;220;64009;-53
2023/09/21 00:44:54;;;;;;;0.40;0.40;;;;;;;17.01;69.97;95947.00;29395;252;63009;-53
2023/09/21 00:45:25;;;;;;;0.40;0.40;;;;;;;17.00;70.17;95946.22;29395;218;63004;-53
2023/09/21 00:46:00;;;;;;;0.40;0.40;;;;;;;17.00;70.23;95946.22;29394;240;64013;-53
2023/09/21 00:46:35;;;;;;;0.40;0.40;;;;;;;17.02;69.97;95945.84;29395;244;63004;-53
2023/09/21 00:47:08;;;;;;;0.40;0.40;;;;;;;17.03;69.74;95948.25;29395;279;63008;-54
2023/09/21 00:47:42;;;;;;;0.40;0.40;;;;;;;17.04;69.85;95946.31;29395;202;63005;-53
2023/09/21 00:48:15;;;;;;;0.43;0.43;;;;;;;17.04;69.73;95943.56;29395;212;63009;-53
2023/09/21 00:48:50;;;;;;;0.40;0.40;;;;;;;17.05;69.98;95950.62;29395;225;63005;-53
2023/09/21 00:49:21;;;;;;;0.40;0.40;;;;;;;17.04;69.68;95943.56;29395;258;63009;-53
2023/09/21 00:49:52;;;;;;;0.40;0.40;;;;;;;17.04;70.00;95943.56;29394;202;64005;-53
2023/09/21 00:50:24;;;;;;;0.40;0.40;;;;;;;17.04;69.67;95943.56;29395;230;63009;-53
2023/09/21 00:50:58;;;;;;;0.40;0.40;;;;;;;17.03;70.12;95947.44;29395;197;63005;-52
2023/09/21 00:51:29;;;;;;;0.40;0.40;;;;;;;17.02;70.04;95946.66;29394;205;64013;-53
2023/09/21 00:52:01;;;;;;;0.40;0.40;;;;;;;17.02;69.73;95943.12;29395;223;63004;-53
2023/09/21 00:52:33;;;;;;;0.40;0.40;;;;;;;17.02;69.76;95945.84;29395;251;63009;-53
2023/09/21 00:53:05;;;;;;;0.40;0.40;;;;;;;17.02;69.85;95943.91;29395;256;63004;-53
2023/09/21 00:53:39;;;;;;;0.40;0.40;;;;;;;17.01;69.61;95941.53;29395;196;63009;-53
2023/09/21 00:54:12;;;;;;;0.40;0.40;;;;;;;16.99;69.74;95939.16;29394;262;64008;-52
2023/09/21 00:54:43;;;;;;;0.40;0.40;;;;;;;16.98;69.67;95942.28;29395;265;63008;-53
2023/09/21 00:55:24;;;;;;;0.40;0.40;;;;;;;16.98;70.26;95947.75;29395;253;63005;-53
2023/09/21 00:55:57;;;;;;;;;;;;;;;17.00;70.06;95948.16;29996;982;6005;-53
2023/09/21 00:56:29;;;;;;;0.40;0.40;;;;;;;17.01;69.99;95944.28;29400;218;63009;-53
2023/09/21 00:57:00;;;;;;;0.40;0.40;;;;;;;17.01;69.81;95939.59;29395;200;63005;-53
2023/09/21 00:57:32;;;;;;;0.40;0.40;;;;;;;17.02;69.84;95943.12;29395;245;63009;-53
2023/09/21 00:58:05;;;;;;;0.40;0.40;;;;;;;17.02;69.69;95940.38;29395;253;63005;-53
2023/09/21 00:58:39;;;;;;;0.40;0.40;;;;;;;17.02;70.24;95948.59;29395;230;63009;-52
2023/09/21 00:59:15;;;;;;;0.47;0.47;;;;;;;17.02;69.95;95938.44;29394;215;64009;-53
2023/09/21 00:59:48;;;;;;;0.40;0.40;;;;;;;17.02;70.04;95935.69;29395;209;63009;-54
2023/09/21 01:00:25;;;;;;;0.40;0.40;;;;;;;17.02;69.72;95937.63;29395;263;63004;-53
2023/09/21 01:00:59;;;;;;;0.40;0.40;;;;;;;17.02;69.73;95937.63;29395;199;63008;-53
2023/09/21 01:01:31;;;;;;;0.40;0.40;;;;;;;17.01;69.71;95933.31;29395;228;63004;-53
2023/09/21 01:02:04;;;;;;;0.40;0.40;;;;;;;17.02;70.00;95934.91;29394;214;64013;-60
2023/09/21 01:02:35;;;;;;;0.40;0.40;;;;;;;17.01;69.84;95938.78;29395;218;63005;-53
2023/09/21 01:03:14;;;;;;;0.40;0.40;;;;;;;17.01;70.01;95936.84;29395;214;63009;-52
2023/09/21 01:03:48;;;;;;;0.40;0.40;;;;;;;17.02;69.80;95937.63;29395;212;63005;-53
2023/09/21 01:04:21;;;;;;;0.40;0.40;;;;;;;17.00;70.03;95935.25;29395;216;63009;-53
2023/09/21 01:04:53;;;;;;;0.40;0.40;;;;;;;17.00;70.35;95934.47;29394;218;64009;-53
2023/09/21 01:05:24;;;;;;;0.40;0.40;;;;;;;16.99;70.13;95930.13;29395;236;63009;-53
2023/09/21 01:05:56;;;;;;;0.40;0.40;;;;;;;17.00;70.01;95931.72;29395;234;63004;-53
2023/09/21 01:06:31;;;;;;;0.30;0.30;;;;;;;17.01;69.87;95941.53;29395;218;63009;-53
2023/09/21 01:07:17;;;;;;;0.40;0.40;;;;;;;17.00;69.52;95937.19;29395;216;63004;-53
2023/09/21 01:07:50;;;;;;;0.40;0.40;;;;;;;16.99;70.02;95924.66;29395;222;63012;-53
2023/09/21 01:08:28;;;;;;;0.40;0.40;;;;;;;17.00;69.70;95931.72;29395;199;63004;-53
2023/09/21 01:09:01;;;;;;;0.40;0.40;;;;;;;17.00;69.68;95928.97;29395;212;63008;-53
2023/09/21 01:09:32;;;;;;;0.40;0.40;;;;;;;16.99;69.43;95925.44;29395;289;63005;-52
2023/09/21 01:10:07;;;;;;;0.40;0.40;;;;;;;16.99;70.21;95930.13;29394;273;64014;-53
2023/09/21 01:10:49;;;;;;;0.40;0.40;;;;;;;16.97;70.02;95930.50;29395;258;63005;-53
2023/09/21 01:11:20;;;;;;;0.40;0.40;;;;;;;16.97;70.19;95933.25;29395;220;63016;-53
2023/09/21 01:11:52;;;;;;;0.40;0.40;;;;;;;16.97;69.88;95926.97;29395;208;63005;-53
2023/09/21 01:12:25;;;;;;;0.40;0.40;;;;;;;16.97;70.04;95932.47;29395;244;63009;-53
2023/09/21 01:12:56;;;;;;;0.40;0.40;;;;;;;16.97;69.78;95927.78;29395;198;63005;-53
2023/09/21 01:13:29;;;;;;;0.40;0.40;;;;;;;16.98;69.97;95928.56;29395;211;63009;-54
2023/09/21 01:14:00;;;;;;;0.40;0.40;;;;;;;16.98;69.53;95928.56;29395;234;63004;-53
2023/09/21 01:14:33;;;;;;;0.40;0.40;;;;;;;17.00;69.48;95927.03;29395;202;63009;-53
2023/09/21 01:15:08;;;;;;;0.40;0.40;;;;;;;17.01;69.71;95928.63;29394;272;64009;-53
2023/09/21 01:15:46;;;;;;;0.40;0.40;;;;;;;17.04;69.14;95921.63;29395;250;63009;-53
2023/09/21 01:16:18;;;;;;;0.40;0.40;;;;;;;17.04;69.27;95927.91;29394;218;64008;-54
2023/09/21 01:16:50;;;;;;;0.40;0.40;;;;;;;17.05;69.28;95923.22;29395;319;63009;-53
2023/09/21 01:17:22;;;;;;;0.50;0.50;;;;;;;17.05;69.20;95929.50;29394;259;64009;-53
2023/09/21 01:17:54;;;;;;;0.40;0.40;;;;;;;17.06;69.30;95924.81;29395;289;63009;-53
2023/09/21 01:18:25;;;;;;;0.40;0.40;;;;;;;17.06;69.14;95922.06;29395;240;63005;-53
2023/09/21 01:18:57;;;;;;;0.40;0.40;;;;;;;17.07;69.41;95920.91;29395;280;63028;-61
2023/09/21 01:19:28;;;;;;;0.40;0.40;;;;;;;17.07;69.27;95929.13;29394;244;64009;-53
2023/09/21 01:19:59;;;;;;;0.40;0.40;;;;;;;17.07;69.16;95926.41;29395;297;63009;-53
2023/09/21 01:20:32;;;;;;;0.40;0.40;;;;;;;17.07;68.80;95931.87;29395;232;63005;-53
2023/09/21 01:21:10;;;;;;;0.40;0.40;;;;;;;17.08;69.01;95925.25;29395;221;63009;-53
2023/09/21 01:21:46;;;;;;;0.40;0.40;;;;;;;17.10;69.22;95925.69;29394;202;64009;-53
2023/09/21 01:22:18;;;;;;;0.40;0.40;;;;;;;17.11;69.19;95926.47;29395;296;63009;-53
2023/09/21 01:23:00;;;;;;;0.40;0.40;;;;;;;17.12;68.81;95923.37;29395;196;63004;-54
2023/09/21 01:23:45;;;;;;;0.40;0.40;;;;;;;17.12;68.68;95928.88;29394;206;64013;-55
2023/09/21 01:24:22;;;;;;;0.50;0.50;;;;;;;17.12;68.74;95923.37;29395;220;63004;-53
2023/09/21 01:24:53;;;;;;;0.40;0.40;;;;;;;17.12;69.02;95923.37;29395;205;63009;-53
2023/09/21 01:25:28;;;;;;;0.40;0.40;;;;;;;17.13;68.66;95924.97;29395;214;63005;-54
2023/09/21 01:26:00;;;;;;;0.40;0.40;;;;;;;17.13;69.00;95926.91;29395;198;63009;-52
2023/09/21 01:26:32;;;;;;;0.40;0.40;;;;;;;17.13;68.81;95924.97;29394;219;64009;-53
2023/09/21 01:27:04;;;;;;;0.40;0.40;;;;;;;17.15;68.96;95928.16;29395;213;63009;-54
2023/09/21 01:27:39;;;;;;;0.40;0.40;;;;;;;17.16;68.69;95926.22;29395;286;63005;-54
2023/09/21 01:28:18;;;;;;;0.40;0.40;;;;;;;17.16;68.61;95917.97;29395;211;63009;-53
2023/09/21 01:28:50;;;;;;;0.40;0.40;;;;;;;17.17;68.55;95920.38;29395;238;63004;-54
2023/09/21 01:29:21;;;;;;;0.40;0.40;;;;;;;17.15;68.41;95925.41;29395;230;63022;-53
2023/09/21 01:29:52;;;;;;;0.40;0.40;;;;;;;17.15;68.42;95917.19;29395;206;63004;-53
2023/09/21 01:30:28;;;;;;;0.40;0.40;;;;;;;17.15;68.82;95922.66;29395;249;63009;-61
2023/09/21 01:31:01;;;;;;;0.40;0.40;;;;;;;17.14;68.65;95921.09;29395;196;63004;-53
2023/09/21 01:31:33;;;;;;;0.40;0.40;;;;;;;17.14;68.66;95928.50;29394;197;64013;-53
2023/09/21 01:32:04;;;;;;;0.40;0.40;;;;;;;17.14;68.92;95923.03;29395;221;63005;-53
2023/09/21 01:32:35;;;;;;;0.40;0.40;;;;;;;17.12;68.87;95917.91;29395;290;63009;-53
2023/09/21 01:33:09;;;;;;;0.45;0.45;;;;;;;17.12;68.82;95917.91;29395;198;63005;-54
2023/09/21 01:33:42;;;;;;;0.40;0.40;;;;;;;17.12;69.06;95919.84;29395;213;63009;-53
2023/09/21 01:34:14;;;;;;;0.40;0.40;;;;;;;17.10;68.81;95914.72;29395;257;63005;-53
2023/09/21 01:34:46;;;;;;;0.40;0.40;;;;;;;17.09;68.94;95913.94;29394;241;64013;-53
2023/09/21 01:35:19;;;;;;;0.40;0.40;;;;;;;17.08;69.25;95917.81;29395;203;63005;-53
2023/09/21 01:35:50;;;;;;;0.40;0.40;;;;;;;17.07;69.19;95921.72;29395;209;63009;-53
2023/09/21 01:36:24;;;;;;;0.40;0.40;;;;;;;17.08;69.22;95911.53;29394;210;64009;-53
2023/09/21 01:36:56;;;;;;;0.40;0.40;;;;;;;17.07;69.42;95909.97;29395;246;63009;-53
2023/09/21 01:37:29;;;;;;;0.40;0.40;;;;;;;17.08;69.04;95914.28;29395;224;63004;-53
2023/09/21 01:38:00;;;;;;;0.40;0.40;;;;;;;17.08;69.36;95914.28;29395;205;63004;-53
2023/09/21 01:38:32;;;;;;;0.40;0.40;;;;;;;17.10;69.05;95917.47;29395;231;63004;-53
2023/09/21 01:39:09;;;;;;;0.40;0.40;;;;;;;17.08;69.09;95914.28;29395;218;63009;-54
2023/09/21 01:39:40;;;;;;;0.43;0.43;;;;;;;17.10;69.06;95912.00;29395;230;63005;-53
2023/09/21 01:40:16;;;;;;;0.40;0.40;;;;;;;17.11;69.29;95915.53;29395;254;63009;-53
2023/09/21 01:40:47;;;;;;;0.40;0.40;;;;;;;17.10;69.12;95914.72;29395;216;63005;-53
2023/09/21 01:41:19;;;;;;;0.40;0.40;;;;;;;17.11;69.43;95907.28;29395;227;63009;-53
2023/09/21 01:41:53;;;;;;;0.40;0.40;;;;;;;17.10;69.33;95898.28;29394;203;64009;-53
2023/09/21 01:42:25;;;;;;;0.40;0.40;;;;;;;17.10;69.23;95903.75;29395;224;63009;-54
2023/09/21 01:42:58;;;;;;;0.43;0.43;;;;;;;17.11;69.04;95908.09;29395;237;63005;-53
2023/09/21 01:43:31;;;;;;;0.40;0.40;;;;;;;17.11;68.96;95899.87;29394;243;64013;-53
2023/09/21 01:44:02;;;;;;;0.40;0.40;;;;;;;17.11;68.88;95897.12;29395;233;63004;-53
2023/09/21 01:44:34;;;;;;;0.40;0.40;;;;;;;17.12;69.08;95901.47;29395;254;63009;-53
2023/09/21 01:45:13;;;;;;;0.40;0.40;;;;;;;17.12;68.95;95901.47;29395;204;63004;-53
2023/09/21 01:45:50;;;;;;;0.40;0.40;;;;;;;17.14;69.37;95901.09;29395;209;63009;-53
2023/09/21 01:46:21;;;;;;;0.40;0.40;;;;;;;17.12;69.06;95901.47;29395;261;63004;-53
2023/09/21 01:46:52;;;;;;;0.40;0.40;;;;;;;17.12;69.14;95901.47;29395;201;63008;-53
2023/09/21 01:47:27;;;;;;;0.40;0.40;;;;;;;17.12;69.12;95901.47;29395;297;63005;-53
2023/09/21 01:47:59;;;;;;;0.40;0.40;;;;;;;17.13;69.20;95900.31;29395;252;63009;-52
2023/09/21 01:48:31;;;;;;;0.40;0.40;;;;;;;17.14;69.04;95898.34;29395;233;63005;-53
2023/09/21 01:49:03;;;;;;;0.40;0.40;;;;;;;17.13;68.71;95903.03;29394;241;64013;-53
2023/09/21 01:49:35;;;;;;;0.40;0.40;;;;;;;17.16;68.78;95902.34;29395;299;63005;-53
2023/09/21 01:50:10;;;;;;;0.40;0.40;;;;;;;17.17;69.07;95903.13;29395;220;63009;-53
2023/09/21 01:50:47;;;;;;;0.40;0.40;;;;;;;17.16;68.80;95896.84;29395;239;63016;-53
2023/09/21 01:51:18;;;;;;;0.40;0.40;;;;;;;17.17;68.94;95892.97;29395;216;63009;-53
2023/09/21 01:51:51;;;;;;;0.40;0.40;;;;;;;17.19;68.87;95901.63;29395;297;63004;-55
2023/09/21 01:52:23;;;;;;;0.40;0.40;;;;;;;17.19;68.64;95896.12;29394;205;64026;-54
2023/09/21 01:52:56;;;;;;;0.40;0.40;;;;;;;17.19;68.59;95901.63;29395;237;63004;-53
2023/09/21 01:53:27;;;;;;;0.50;0.50;;;;;;;17.19;68.75;95896.12;29395;215;63009;-53
2023/09/21 01:53:59;;;;;;;0.40;0.40;;;;;;;17.21;68.58;95899.31;29395;202;63004;-53
2023/09/21 01:54:32;;;;;;;0.47;0.47;;;;;;;17.22;68.87;95895.41;29395;237;63008;-53
2023/09/21 01:55:06;;;;;;;0.40;0.40;;;;;;;17.21;68.65;95899.31;29395;207;63005;-53
2023/09/21 01:55:39;;;;;;;0.40;0.40;;;;;;;17.23;68.71;95897.00;29395;205;63026;-54
2023/09/21 01:56:11;;;;;;;0.40;0.40;;;;;;;17.24;68.69;95897.81;29394;215;64009;-53
2023/09/21 01:56:43;;;;;;;0.40;0.40;;;;;;;17.24;68.59;95895.84;29395;219;63009;-53
2023/09/21 01:57:14;;;;;;;0.40;0.40;;;;;;;17.26;68.18;95896.28;29394;208;64009;-53
2023/09/21 01:57:45;;;;;;;0.50;0.50;;;;;;;17.27;68.27;95897.09;29395;253;63009;-53
2023/09/21 01:58:19;;;;;;;0.40;0.40;;;;;;;17.26;68.18;95896.28;29394;218;64009;-53
2023/09/21 01:58:54;;;;;;;0.40;0.40;;;;;;;17.26;68.19;95890.81;29395;197;63009;-52
2023/09/21 01:59:25;;;;;;;0.40;0.40;;;;;;;17.27;68.14;95894.34;29395;202;63004;-52
2023/09/21 01:59:57;;;;;;;0.40;0.40;;;;;;;17.27;68.55;95897.09;29395;218;63018;-53
2023/09/21 02:00:29;;;;;;;0.40;0.40;;;;;;;17.27;68.44;95892.41;29395;248;63004;-53
2023/09/21 02:01:01;;;;;;;0.40;0.40;;;;;;;17.28;68.51;95893.97;29395;272;63008;-54
2023/09/21 02:01:33;;;;;;;0.50;0.50;;;;;;;17.29;68.28;95894.78;29395;239;63004;-53
2023/09/21 02:02:04;;;;;;;0.50;0.50;;;;;;;17.29;68.40;95894.78;29395;221;63009;-53
2023/09/21 02:02:36;;;;;;;0.40;0.40;;;;;;;17.29;68.15;95892.03;29395;265;63005;-53
2023/09/21 02:03:14;;;;;;;0.40;0.40;;;;;;;17.29;68.51;95895.56;29395;252;63009;-53
2023/09/21 02:03:45;;;;;;;0.40;0.40;;;;;;;17.29;68.28;95892.03;29394;221;64009;-55
2023/09/21 02:04:16;;;;;;;0.40;0.40;;;;;;;17.28;68.31;95888.50;29395;231;63009;-53
2023/09/21 02:04:51;;;;;;;0.40;0.40;;;;;;;17.28;68.34;95891.25;29395;198;63005;-53
2023/09/21 02:05:23;;;;;;;0.40;0.40;;;;;;;17.28;68.51;95888.50;29395;239;63009;-53
2023/09/21 02:05:57;;;;;;;0.40;0.40;;;;;;;17.29;68.08;95883.81;29395;205;63004;-53
2023/09/21 02:06:28;;;;;;;0.40;0.40;;;;;;;17.27;68.45;95883.38;29395;203;63009;-61
2023/09/21 02:07:00;;;;;;;0.40;0.40;;;;;;;17.27;68.14;95883.38;29395;225;63004;-53
2023/09/21 02:07:31;;;;;;;0.40;0.40;;;;;;;17.28;68.27;95887.72;29395;225;63009;-53
2023/09/21 02:08:05;;;;;;;0.40;0.40;;;;;;;17.27;68.07;95878.69;29395;224;63004;-54
2023/09/21 02:08:36;;;;;;;0.40;0.40;;;;;;;17.28;68.26;95888.50;29395;288;63008;-53
2023/09/21 02:09:09;;;;;;;0.40;0.40;;;;;;;17.28;68.38;95887.72;29394;200;64009;-53
2023/09/21 02:09:41;;;;;;;0.40;0.40;;;;;;;17.27;68.40;95883.38;29395;197;63009;-53
2023/09/21 02:10:15;;;;;;;0.50;0.50;;;;;;;17.27;68.41;95881.44;29395;220;63001;-53
2023/09/21 02:10:49;;;;;;;0.40;0.40;;;;;;;17.28;68.72;95882.22;29395;252;63009;-53
2023/09/21 02:11:21;;;;;;;0.40;0.40;;;;;;;17.27;68.36;95880.63;29395;223;63005;-53
2023/09/21 02:11:55;;;;;;;0.40;0.40;;;;;;;17.26;68.64;95879.84;29395;202;63009;-53
2023/09/21 02:12:27;;;;;;;0.40;0.40;;;;;;;17.27;68.46;95880.63;29395;225;63005;-53
2023/09/21 02:13:00;;;;;;;0.40;0.40;;;;;;;17.26;68.68;95885.31;29395;243;63009;-53
2023/09/21 02:13:32;;;;;;;0.40;0.40;;;;;;;17.27;68.42;95870.47;29395;227;63004;-52
2023/09/21 02:14:03;;;;;;;0.40;0.40;;;;;;;17.28;68.23;95877.53;29394;207;64013;-53
2023/09/21 02:14:34;;;;;;;0.40;0.40;;;;;;;17.28;68.37;95865.78;29394;231;64009;-53
2023/09/21 02:15:11;;;;;;;0.40;0.40;;;;;;;17.27;68.60;95881.44;29395;229;63009;-53
2023/09/21 02:15:44;;;;;;;0.40;0.40;;;;;;;17.29;68.21;95870.09;29395;211;63004;-53
2023/09/21 02:16:16;;;;;;;0.40;0.40;;;;;;;17.29;68.42;95873.62;29395;223;63008;-53
2023/09/21 02:16:48;;;;;;;0.40;0.40;;;;;;;17.29;68.13;95870.91;29395;205;63005;-53
2023/09/21 02:17:24;;;;;;;0.40;0.40;;;;;;;17.29;68.18;95862.69;29395;220;63009;-53
2023/09/21 02:17:55;;;;;;;0.40;0.40;;;;;;;17.29;68.04;95862.69;29395;220;63011;-53
2023/09/21 02:18:27;;;;;;;0.40;0.40;;;;;;;17.28;68.10;95863.81;29395;223;63009;-53
2023/09/21 02:18:58;;;;;;;0.40;0.40;;;;;;;17.29;68.18;95857.19;29394;207;64009;-53
2023/09/21 02:19:37;;;;;;;0.40;0.40;;;;;;;17.29;68.26;95859.12;29395;268;63009;-53
2023/09/21 02:20:14;;;;;;;0.40;0.40;;;;;;;17.27;68.37;95858.72;29395;226;63005;-53
2023/09/21 02:20:45;;;;;;;0.40;0.40;;;;;;;17.28;68.49;95857.56;29395;243;63014;-53
2023/09/21 02:21:19;;;;;;;0.40;0.40;;;;;;;17.27;68.45;95855.97;29395;198;63004;-52
2023/09/21 02:21:50;;;;;;;0.40;0.40;;;;;;;17.26;68.60;95852.44;29394;218;64013;-51
2023/09/21 02:22:21;;;;;;;0.40;0.40;;;;;;;17.25;68.48;95861.81;29395;204;63004;-53
2023/09/21 02:23:01;;;;;;;0.40;0.40;;;;;;;17.25;68.76;95855.53;29395;223;63009;-54
2023/09/21 02:23:33;;;;;;;0.40;0.40;;;;;;;17.24;68.75;95854.75;29395;235;63004;-53
2023/09/21 02:24:05;;;;;;;0.40;0.40;;;;;;;17.24;68.77;95854.75;29394;278;64014;-53
2023/09/21 02:24:38;;;;;;;0.40;0.40;;;;;;;17.24;68.72;95854.75;29395;208;63005;-53
2023/09/21 02:25:13;;;;;;;0.40;0.40;;;;;;;17.23;68.99;95855.88;29395;197;63009;-53
2023/09/21 02:25:45;;;;;;;0.40;0.40;;;;;;;17.23;69.16;95853.16;29395;204;63005;-53
2023/09/21 02:26:16;;;;;;;0.40;0.40;;;;;;;17.21;69.22;95849.97;29395;226;63023;-53
2023/09/21 02:26:48;;;;;;;0.50;0.50;;;;;;;17.22;69.23;95857.03;29394;197;64009;-52
2023/09/21 02:27:19;;;;;;;0.47;0.47;;;;;;;17.23;69.31;95853.16;29395;222;63028;-53
2023/09/21 02:27:51;;;;;;;0.40;0.40;;;;;;;17.21;69.25;95849.97;29395;229;63005;-53
2023/09/21 02:28:22;;;;;;;0.40;0.40;;;;;;;17.21;69.01;95860.94;29395;241;63009;-53
2023/09/21 02:28:54;;;;;;;0.40;0.40;;;;;;;17.20;69.03;95848.38;29395;218;63004;-53
2023/09/21 02:29:28;;;;;;;0.40;0.40;;;;;;;17.20;69.40;95851.12;29395;238;63009;-53
2023/09/21 02:30:00;;;;;;;0.40;0.40;;;;;;;17.21;69.14;95851.91;29395;206;63004;-53
2023/09/21 02:30:33;;;;;;;0.40;0.40;;;;;;;17.21;69.34;95844.50;29395;226;63009;-53
2023/09/21 02:31:12;;;;;;;0.40;0.40;;;;;;;17.21;69.16;95844.50;29394;211;64008;-53
2023/09/21 02:31:44;;;;;;;0.40;0.40;;;;;;;17.22;68.94;95846.06;29395;225;63017;-52
2023/09/21 02:32:18;;;;;;;0.40;0.40;;;;;;;17.23;68.67;95841.38;29395;243;63005;-53
2023/09/21 02:32:55;;;;;;;0.40;0.40;;;;;;;17.23;68.81;95846.87;29395;275;63009;-53
2023/09/21 02:33:29;;;;;;;0.40;0.40;;;;;;;17.23;68.75;95839.44;29394;213;64005;-53
2023/09/21 02:34:01;;;;;;;0.40;0.40;;;;;;;17.24;68.74;95843.78;29395;220;63009;-53
2023/09/21 02:34:34;;;;;;;0.40;0.40;;;;;;;17.26;68.63;95840.66;29395;231;63005;-55
2023/09/21 02:35:07;;;;;;;0.40;0.40;;;;;;;17.26;68.58;95841.47;29395;231;63009;-53
2023/09/21 02:35:41;;;;;;;0.40;0.40;;;;;;;17.26;68.67;95840.66;29395;240;63004;-53
2023/09/21 02:36:17;;;;;;;0.40;0.40;;;;;;;17.24;68.22;95838.28;29394;234;64013;-53
2023/09/21 02:36:52;;;;;;;0.40;0.40;;;;;;;17.24;68.56;95838.28;29395;231;63014;-53
2023/09/21 02:37:24;;;;;;;0.40;0.40;;;;;;;17.26;68.45;95841.47;29395;244;63009;-53
2023/09/21 02:37:56;;;;;;;0.40;0.40;;;;;;;17.26;68.37;95835.97;29395;217;63004;-53
2023/09/21 02:38:27;;;;;;;0.40;0.40;;;;;;;17.24;68.75;95832.81;29395;243;63008;-53
2023/09/21 02:38:59;;;;;;;0.40;0.40;;;;;;;17.21;68.41;95833.53;29395;246;63005;-52